Time;durP1;ratioP1;P1;durP2;ratioP2;P2;SDS_P1;SDS_P2;PMS_P1;PMS_P2;Temp;Humidity;BMP_temperature;BMP_pressure;BME280_temperature;BME280_humidity;BME280_pressure;Samples;Min_cycle;Max_cycle;Signal;HPM_P1;HPM_P2
2021/05/07 00:01:56;;;;;;;0.00;0.00;;;;;;;;;;5038824;28;20485;-60
2021/05/07 00:04:22;;;;;;;0.00;0.00;;;;;;;;;;5034222;28;20197;-59
2021/05/07 00:06:52;;;;;;;0.00;0.00;;;;;;;;;;5034764;28;20269;-59
2021/05/07 00:09:19;;;;;;;0.00;0.00;;;;;;;;;;5034871;28;20207;-59
2021/05/07 00:11:46;;;;;;;0.00;0.00;;;;;;;;;;5032797;28;20182;-58
2021/05/07 00:14:13;;;;;;;0.63;0.63;;;;;;;;;;5035838;28;20274;-58
2021/05/07 00:16:40;;;;;;;0.10;0.10;;;;;;;;;;5032244;28;20543;-59
2021/05/07 00:19:06;;;;;;;0.00;0.00;;;;;;;;;;5035829;28;20182;-58
2021/05/07 00:21:34;;;;;;;1.90;1.80;;;;;;;;;;5036423;28;20261;-59
2021/05/07 00:24:01;;;;;;;0.07;0.07;;;;;;;;;;5040404;28;20182;-59
2021/05/07 00:26:27;;;;;;;0.00;0.00;;;;;;;;;;5039094;28;20195;-59
2021/05/07 00:28:54;;;;;;;0.00;0.00;;;;;;;;;;5037367;28;20940;-59
2021/05/07 00:31:21;;;;;;;0.10;0.10;;;;;;;;;;5040322;28;20185;-58
2021/05/07 00:33:47;;;;;;;0.00;0.00;;;;;;;;;;5040536;28;20178;-59
2021/05/07 00:36:14;;;;;;;0.40;0.40;;;;;;;;;;5041985;28;20191;-59
2021/05/07 00:38:40;;;;;;;0.33;0.33;;;;;;;;;;5044935;28;20187;-58
2021/05/07 00:41:07;;;;;;;0.00;0.00;;;;;;;;;;5035400;28;20245;-59
2021/05/07 00:43:34;;;;;;;1.30;0.47;;;;;;;;;;5036138;28;20187;-59
2021/05/07 00:46:00;;;;;;;0.00;0.00;;;;;;;;;;5033698;28;20183;-59
2021/05/07 00:48:27;;;;;;;0.83;0.83;;;;;;;;;;5037199;28;20292;-59
2021/05/07 00:50:54;;;;;;;0.00;0.00;;;;;;;;;;5030833;28;20759;-58
2021/05/07 00:53:20;;;;;;;0.00;0.00;;;;;;;;;;5036961;28;20207;-59
2021/05/07 00:55:49;;;;;;;0.00;0.00;;;;;;;;;;5038864;28;20189;-59
2021/05/07 00:58:23;;;;;;;0.00;0.00;;;;;;;;;;5036060;28;20264;-59
2021/05/07 01:00:56;;;;;;;4.90;1.30;;;;;;;;;;5034730;28;20189;-59
2021/05/07 01:03:23;;;;;;;0.63;0.63;;;;;;;;;;5043143;23;20947;-60
2021/05/07 01:05:51;;;;;;;3.10;0.50;;;;;;;;;;5009136;28;20211;-58
2021/05/07 01:08:18;;;;;;;0.10;0.00;;;;;;;;;;5014877;28;20289;-60
2021/05/07 01:10:45;;;;;;;0.00;0.00;;;;;;;;;;5007831;28;20179;-58
2021/05/07 01:13:11;;;;;;;0.00;0.00;;;;;;;;;;5013841;28;20186;-58
2021/05/07 01:15:38;;;;;;;1.70;0.87;;;;;;;;;;5006024;28;20261;-58
2021/05/07 01:18:07;;;;;;;0.00;0.00;;;;;;;;;;5010305;28;20740;-57
2021/05/07 01:20:34;;;;;;;9.80;1.73;;;;;;;;;;5013031;28;20182;-58
2021/05/07 01:23:02;;;;;;;0.10;0.10;;;;;;;;;;5017716;28;20183;-58
2021/05/07 01:25:30;;;;;;;0.00;0.00;;;;;;;;;;5010453;28;20188;-58
2021/05/07 01:27:58;;;;;;;28.33;1.50;;;;;;;;;;4998035;28;20187;-58
2021/05/07 01:30:29;;;;;;;0.47;0.47;;;;;;;;;;5007892;28;20184;-58
2021/05/07 01:32:55;;;;;;;0.00;0.00;;;;;;;;;;5010563;28;20270;-58
2021/05/07 01:35:23;;;;;;;2.73;0.97;;;;;;;;;;5007159;28;20263;-59
2021/05/07 01:37:52;;;;;;;0.20;0.20;;;;;;;;;;5008227;28;20180;-58
2021/05/07 01:40:20;;;;;;;0.00;0.00;;;;;;;;;;5007463;28;20192;-58
2021/05/07 01:42:47;;;;;;;0.00;0.00;;;;;;;;;;5008504;28;20184;-58
2021/05/07 01:45:15;;;;;;;0.00;0.00;;;;;;;;;;5009450;28;20180;-58
2021/05/07 01:47:43;;;;;;;0.00;0.00;;;;;;;;;;4995844;28;20283;-58
2021/05/07 01:50:10;;;;;;;0.00;0.00;;;;;;;;;;4996536;28;20924;-58
2021/05/07 01:52:37;;;;;;;0.10;0.10;;;;;;;;;;5011095;28;20180;-58
2021/05/07 01:55:06;;;;;;;0.77;0.30;;;;;;;;;;5009491;28;20247;-58
2021/05/07 01:57:33;;;;;;;0.20;0.20;;;;;;;;;;5008151;28;20934;-58
2021/05/07 02:00:00;;;;;;;0.00;0.00;;;;;;;;;;5008519;28;20188;-58
2021/05/07 02:02:26;;;;;;;0.33;0.30;;;;;;;;;;5008065;28;20567;-58
2021/05/07 02:04:53;;;;;;;3.03;0.77;;;;;;;;;;5011472;28;20223;-58
2021/05/07 02:07:20;;;;;;;0.03;0.03;;;;;;;;;;5010610;28;20188;-59
2021/05/07 02:09:46;;;;;;;0.10;0.10;;;;;;;;;;5012556;28;20796;-58
2021/05/07 02:12:13;;;;;;;0.10;0.10;;;;;;;;;;5008904;28;20538;-58
2021/05/07 02:14:41;;;;;;;0.37;0.37;;;;;;;;;;5011276;28;20180;-58
2021/05/07 02:17:08;;;;;;;0.20;0.20;;;;;;;;;;5012184;28;20183;-58
2021/05/07 02:19:35;;;;;;;0.03;0.03;;;;;;;;;;5015993;28;20184;-58
2021/05/07 02:22:01;;;;;;;0.27;0.23;;;;;;;;;;5016903;28;20192;-58
2021/05/07 02:24:28;;;;;;;0.97;0.93;;;;;;;;;;5010510;28;20291;-59
2021/05/07 02:26:54;;;;;;;0.43;0.43;;;;;;;;;;5010626;28;20195;-59
2021/05/07 02:29:21;;;;;;;0.10;0.10;;;;;;;;;;5012885;28;20204;-58
2021/05/07 02:31:48;;;;;;;0.00;0.00;;;;;;;;;;5022805;28;20196;-59
2021/05/07 02:34:14;;;;;;;0.03;0.03;;;;;;;;;;5015223;28;20188;-59
2021/05/07 02:36:41;;;;;;;0.00;0.00;;;;;;;;;;5016876;28;20187;-59
2021/05/07 02:39:09;;;;;;;12.13;0.83;;;;;;;;;;5020180;28;20191;-59
2021/05/07 02:41:38;;;;;;;0.37;0.33;;;;;;;;;;5015543;28;20358;-58
2021/05/07 02:44:05;;;;;;;0.10;0.10;;;;;;;;;;5015543;28;20200;-58
2021/05/07 02:46:35;;;;;;;0.63;0.63;;;;;;;;;;5016804;28;20291;-59
2021/05/07 02:49:02;;;;;;;0.10;0.10;;;;;;;;;;5014331;28;20217;-59
2021/05/07 02:51:29;;;;;;;2.43;1.47;;;;;;;;;;5013177;28;20787;-59
2021/05/07 02:53:56;;;;;;;4.87;1.27;;;;;;;;;;5007919;28;20355;-58
2021/05/07 02:56:23;;;;;;;0.10;0.10;;;;;;;;;;5009840;28;20172;-58
2021/05/07 02:58:50;;;;;;;0.00;0.00;;;;;;;;;;5012246;28;21141;-59
2021/05/07 03:01:16;;;;;;;0.00;0.00;;;;;;;;;;5013422;28;20239;-58
2021/05/07 03:03:43;;;;;;;1.80;0.40;;;;;;;;;;5015236;28;20944;-58
2021/05/07 03:06:10;;;;;;;0.87;0.87;;;;;;;;;;5022592;28;20187;-58
2021/05/07 03:08:37;;;;;;;0.00;0.00;;;;;;;;;;5013938;28;20208;-58
2021/05/07 03:11:04;;;;;;;0.00;0.00;;;;;;;;;;5012864;28;20184;-58
2021/05/07 03:13:31;;;;;;;0.10;0.10;;;;;;;;;;5009349;28;20211;-58
2021/05/07 03:15:57;;;;;;;0.00;0.00;;;;;;;;;;5009375;28;20187;-58
2021/05/07 03:18:28;;;;;;;0.10;0.10;;;;;;;;;;5014232;28;20250;-58
2021/05/07 03:20:55;;;;;;;0.00;0.00;;;;;;;;;;5013436;28;20172;-58
2021/05/07 03:23:22;;;;;;;0.20;0.20;;;;;;;;;;5013364;28;20176;-58
2021/05/07 03:25:50;;;;;;;0.17;0.17;;;;;;;;;;5014149;28;20776;-58
2021/05/07 03:28:17;;;;;;;0.10;0.10;;;;;;;;;;5011616;28;20250;-58
2021/05/07 03:30:44;;;;;;;0.20;0.20;;;;;;;;;;5014886;28;21157;-59
2021/05/07 03:33:10;;;;;;;2.20;2.10;;;;;;;;;;5010092;28;20235;-58
2021/05/07 03:35:37;;;;;;;0.77;0.77;;;;;;;;;;5013730;28;20889;-59
2021/05/07 03:38:05;;;;;;;1.27;1.27;;;;;;;;;;5014615;28;20711;-59
2021/05/07 03:40:36;;;;;;;0.47;0.47;;;;;;;;;;5014827;28;20184;-58
2021/05/07 03:43:03;;;;;;;0.60;0.60;;;;;;;;;;5015252;28;20192;-59
2021/05/07 03:45:30;;;;;;;0.10;0.10;;;;;;;;;;5019782;28;20197;-59
2021/05/07 03:47:56;;;;;;;0.10;0.10;;;;;;;;;;5017156;28;20841;-58
2021/05/07 13:00:08;;;;;;;0.10;0.10;;;;;;;;;;5083888;27;21102;-62
2021/05/07 13:02:34;;;;;;;0.90;0.40;;;;;;;;;;5093594;28;20920;-62
2021/05/07 13:05:01;;;;;;;0.47;0.20;;;;;;;;;;5091235;28;20181;-62
2021/05/07 13:07:30;;;;;;;0.00;0.00;;;;;;;;;;5092811;28;20271;-62
2021/05/07 13:09:57;;;;;;;0.00;0.00;;;;;;;;;;5089745;28;20191;-62
2021/05/07 13:12:23;;;;;;;2.33;0.97;;;;;;;;;;5088130;28;20192;-62
2021/05/07 13:14:50;;;;;;;0.00;0.00;;;;;;;;;;5076793;28;20219;-62
2021/05/07 13:17:17;;;;;;;0.20;0.20;;;;;;;;;;5096347;28;20219;-62
2021/05/07 13:19:44;;;;;;;0.00;0.00;;;;;;;;;;5096634;28;20195;-62
2021/05/07 13:22:11;;;;;;;3.10;0.17;;;;;;;;;;5092906;28;20224;-62
2021/05/07 13:24:38;;;;;;;0.20;0.20;;;;;;;;;;5090488;28;20187;-62
2021/05/07 13:27:07;;;;;;;0.20;0.20;;;;;;;;;;5092275;28;20265;-62
2021/05/07 13:29:34;;;;;;;0.10;0.10;;;;;;;;;;5097358;28;20185;-62
2021/05/07 13:32:00;;;;;;;0.20;0.20;;;;;;;;;;5094414;28;20178;-62
2021/05/07 13:34:27;;;;;;;0.10;0.10;;;;;;;;;;5084724;28;20214;-63
2021/05/07 13:36:54;;;;;;;0.00;0.00;;;;;;;;;;5091507;28;20204;-62
2021/05/07 13:39:20;;;;;;;0.40;0.40;;;;;;;;;;5090089;28;20971;-62
2021/05/07 13:41:47;;;;;;;0.00;0.00;;;;;;;;;;5095061;28;20176;-62
2021/05/07 13:44:13;;;;;;;1.30;0.57;;;;;;;;;;5092912;28;20898;-62
2021/05/07 13:46:40;;;;;;;0.00;0.00;;;;;;;;;;5089748;28;20235;-62
2021/05/07 13:49:07;;;;;;;0.37;0.33;;;;;;;;;;5088174;28;20210;-62
2021/05/07 13:51:33;;;;;;;0.00;0.00;;;;;;;;;;5089388;28;20914;-62
2021/05/07 13:54:00;;;;;;;0.00;0.00;;;;;;;;;;5089737;28;20300;-62
2021/05/07 13:56:27;;;;;;;0.00;0.00;;;;;;;;;;5096278;28;20188;-62
2021/05/07 13:58:53;;;;;;;0.00;0.00;;;;;;;;;;5091429;28;20338;-62
2021/05/07 14:01:20;;;;;;;0.53;0.53;;;;;;;;;;5092972;28;20189;-62
2021/05/07 14:03:46;;;;;;;1.07;0.60;;;;;;;;;;5087312;28;20184;-62
2021/05/07 14:06:13;;;;;;;0.10;0.10;;;;;;;;;;5089569;28;20212;-62
2021/05/07 14:08:39;;;;;;;0.10;0.10;;;;;;;;;;5085478;28;20184;-62
2021/05/07 14:11:06;;;;;;;0.97;0.67;;;;;;;;;;5066711;28;20179;-61
2021/05/07 14:13:33;;;;;;;2.77;0.90;;;;;;;;;;5080070;28;20183;-62
2021/05/07 14:15:59;;;;;;;0.00;0.00;;;;;;;;;;5077880;28;20806;-62
2021/05/07 14:18:26;;;;;;;8.10;1.80;;;;;;;;;;5066591;28;20738;-62
2021/05/07 14:20:52;;;;;;;0.00;0.00;;;;;;;;;;5081791;28;20545;-62
2021/05/07 14:23:19;;;;;;;3.60;0.20;;;;;;;;;;5077975;28;21275;-62
2021/05/07 14:25:45;;;;;;;0.90;0.60;;;;;;;;;;5080019;28;20173;-62
2021/05/07 14:28:12;;;;;;;0.50;0.23;;;;;;;;;;5081721;28;20277;-62
2021/05/07 14:30:38;;;;;;;4.57;0.17;;;;;;;;;;5079781;28;20178;-62
2021/05/07 14:33:05;;;;;;;1.40;0.20;;;;;;;;;;5072359;28;20234;-62
2021/05/07 14:35:32;;;;;;;0.10;0.10;;;;;;;;;;5066840;28;20205;-62
2021/05/07 14:37:59;;;;;;;0.37;0.00;;;;;;;;;;5081831;28;20183;-62
2021/05/07 14:40:25;;;;;;;0.20;0.20;;;;;;;;;;5077985;28;20187;-62
2021/05/07 14:42:52;;;;;;;0.13;0.13;;;;;;;;;;5079609;28;20209;-61
2021/05/07 14:45:22;;;;;;;3.10;0.43;;;;;;;;;;5079038;28;20180;-62
2021/05/07 14:47:48;;;;;;;0.00;0.00;;;;;;;;;;5078057;28;20174;-61
2021/05/07 14:50:15;;;;;;;0.00;0.00;;;;;;;;;;5077653;28;20184;-62
2021/05/07 14:52:41;;;;;;;0.10;0.10;;;;;;;;;;5080836;28;20196;-61
2021/05/07 14:55:08;;;;;;;0.00;0.00;;;;;;;;;;5078427;28;20374;-61
2021/05/07 14:57:35;;;;;;;0.50;0.50;;;;;;;;;;5079123;28;20266;-61
2021/05/07 15:00:01;;;;;;;1.47;0.83;;;;;;;;;;5077072;28;20257;-62
2021/05/07 15:02:28;;;;;;;0.00;0.00;;;;;;;;;;5075751;28;20753;-62
2021/05/07 15:04:55;;;;;;;0.00;0.00;;;;;;;;;;5074239;28;20271;-62
2021/05/07 15:07:22;;;;;;;0.00;0.00;;;;;;;;;;5077202;28;20979;-62
2021/05/07 15:09:49;;;;;;;0.00;0.00;;;;;;;;;;5079562;28;20452;-62
2021/05/07 15:12:16;;;;;;;9.23;0.60;;;;;;;;;;5080073;28;20201;-62
2021/05/07 15:14:43;;;;;;;1.13;0.43;;;;;;;;;;5075736;28;20182;-62
2021/05/07 15:17:09;;;;;;;0.00;0.00;;;;;;;;;;5075360;28;20285;-62
2021/05/07 15:19:36;;;;;;;0.30;0.10;;;;;;;;;;5080468;28;20212;-62
2021/05/07 15:22:03;;;;;;;0.00;0.00;;;;;;;;;;5080071;28;20267;-62
2021/05/07 15:24:29;;;;;;;0.37;0.30;;;;;;;;;;5071216;28;20185;-61
2021/05/07 15:26:56;;;;;;;0.20;0.20;;;;;;;;;;5077576;28;20184;-62
2021/05/07 15:29:22;;;;;;;0.10;0.10;;;;;;;;;;5082977;28;20224;-62
2021/05/07 15:31:49;;;;;;;0.00;0.00;;;;;;;;;;5081875;28;20200;-62
2021/05/07 15:34:15;;;;;;;0.30;0.30;;;;;;;;;;5076311;28;20191;-62
2021/05/07 15:36:43;;;;;;;0.00;0.00;;;;;;;;;;5070409;28;20186;-62
2021/05/07 15:39:10;;;;;;;0.03;0.03;;;;;;;;;;5074942;28;20291;-62
2021/05/07 15:41:36;;;;;;;3.13;2.90;;;;;;;;;;5076384;28;20927;-62
2021/05/07 15:44:03;;;;;;;0.20;0.00;;;;;;;;;;5085567;28;20268;-62
2021/05/07 15:46:30;;;;;;;5.00;1.43;;;;;;;;;;5082051;28;20199;-61
2021/05/07 15:48:56;;;;;;;0.50;0.43;;;;;;;;;;5072170;28;20810;-62
2021/05/07 15:51:23;;;;;;;0.23;0.23;;;;;;;;;;5079158;28;20215;-62
2021/05/07 15:53:49;;;;;;;0.00;0.00;;;;;;;;;;5075006;28;20223;-62
2021/05/07 15:56:16;;;;;;;0.47;0.20;;;;;;;;;;5064569;28;20202;-62
2021/05/07 15:58:42;;;;;;;0.00;0.00;;;;;;;;;;5070242;28;20344;-62
2021/05/07 16:01:09;;;;;;;18.23;0.40;;;;;;;;;;5078328;28;20293;-62
2021/05/07 16:03:35;;;;;;;0.00;0.00;;;;;;;;;;5077621;28;20226;-62
2021/05/07 16:06:02;;;;;;;0.00;0.00;;;;;;;;;;5077780;28;20183;-62
2021/05/07 16:08:28;;;;;;;1.73;0.70;;;;;;;;;;5076671;28;20178;-62
2021/05/07 16:10:55;;;;;;;0.00;0.00;;;;;;;;;;5069740;28;20194;-62
2021/05/07 16:13:22;;;;;;;0.10;0.10;;;;;;;;;;5078502;28;20351;-62
2021/05/07 16:15:48;;;;;;;0.10;0.10;;;;;;;;;;5079887;28;20217;-62
2021/05/07 16:18:15;;;;;;;0.13;0.13;;;;;;;;;;5072519;28;20209;-62
2021/05/07 16:20:42;;;;;;;5.93;0.20;;;;;;;;;;5075194;28;20304;-61
2021/05/07 16:23:10;;;;;;;0.93;0.43;;;;;;;;;;5075199;28;21178;-61
2021/05/07 16:25:37;;;;;;;0.20;0.20;;;;;;;;;;5080823;28;20271;-62
2021/05/07 16:28:04;;;;;;;1.70;0.30;;;;;;;;;;5077012;28;20182;-62
2021/05/07 16:30:30;;;;;;;3.73;0.93;;;;;;;;;;5070806;28;20186;-61
2021/05/07 16:32:57;;;;;;;1.53;0.80;;;;;;;;;;5065942;28;20180;-61
2021/05/07 16:35:24;;;;;;;0.10;0.10;;;;;;;;;;5077144;28;20215;-62
2021/05/07 16:37:55;;;;;;;3.20;3.00;;;;;;;;;;5078576;28;20181;-62
2021/05/07 16:40:22;;;;;;;0.10;0.10;;;;;;;;;;5072525;28;20189;-62
2021/05/07 16:42:49;;;;;;;1.33;0.40;;;;;;;;;;5080256;28;20745;-61
2021/05/07 16:45:15;;;;;;;4.07;0.10;;;;;;;;;;5072077;28;20221;-61
2021/05/07 16:47:42;;;;;;;0.00;0.00;;;;;;;;;;5072828;28;20202;-61
2021/05/07 16:50:09;;;;;;;0.30;0.30;;;;;;;;;;5069895;28;20958;-62
2021/05/07 16:52:35;;;;;;;0.00;0.00;;;;;;;;;;5074273;28;20381;-62
2021/05/07 16:55:02;;;;;;;1.77;0.70;;;;;;;;;;5081023;28;20213;-62
2021/05/07 16:57:29;;;;;;;0.33;0.33;;;;;;;;;;5073570;28;20945;-62
2021/05/07 16:59:55;;;;;;;0.40;0.20;;;;;;;;;;5069174;28;20237;-62
2021/05/07 17:02:22;;;;;;;0.67;0.53;;;;;;;;;;5072408;28;20242;-61
2021/05/07 17:04:48;;;;;;;0.47;0.47;;;;;;;;;;5073517;28;20188;-62
2021/05/07 17:07:15;;;;;;;0.10;0.10;;;;;;;;;;5076277;28;20185;-62
2021/05/07 17:09:41;;;;;;;0.83;0.20;;;;;;;;;;5070357;28;20551;-62
2021/05/07 17:12:08;;;;;;;0.10;0.10;;;;;;;;;;5080592;28;20202;-62
2021/05/07 17:14:35;;;;;;;0.10;0.10;;;;;;;;;;5074535;28;20262;-62
2021/05/07 17:17:01;;;;;;;0.10;0.00;;;;;;;;;;5079738;28;20204;-62
2021/05/07 17:19:28;;;;;;;1.67;1.57;;;;;;;;;;5077984;28;20207;-62
2021/05/07 17:21:55;;;;;;;5.30;0.77;;;;;;;;;;5078876;28;20179;-62
2021/05/07 17:24:21;;;;;;;0.10;0.10;;;;;;;;;;5065607;28;20273;-62
2021/05/07 17:26:48;;;;;;;0.10;0.10;;;;;;;;;;5078120;28;20221;-61
2021/05/07 17:29:14;;;;;;;0.30;0.30;;;;;;;;;;5074753;28;20192;-62
2021/05/07 17:31:41;;;;;;;0.40;0.10;;;;;;;;;;5078227;28;20264;-62
2021/05/07 17:34:08;;;;;;;1.30;0.23;;;;;;;;;;5073578;28;20197;-62
2021/05/07 17:36:35;;;;;;;0.00;0.00;;;;;;;;;;5069800;28;20189;-62
2021/05/07 17:39:02;;;;;;;0.00;0.00;;;;;;;;;;5075856;28;20248;-62
2021/05/07 17:41:29;;;;;;;0.00;0.00;;;;;;;;;;5070040;28;20492;-62
2021/05/07 17:43:56;;;;;;;0.20;0.20;;;;;;;;;;5074397;28;20194;-62
2021/05/07 17:46:24;;;;;;;0.10;0.10;;;;;;;;;;5080445;28;20195;-62
2021/05/07 17:48:51;;;;;;;8.30;7.63;;;;;;;;;;5086503;28;20651;-62
2021/05/07 17:51:17;;;;;;;0.00;0.00;;;;;;;;;;5081223;28;20239;-63
2021/05/07 17:53:44;;;;;;;4.33;0.70;;;;;;;;;;5080352;28;20186;-62
2021/05/07 17:56:10;;;;;;;0.00;0.00;;;;;;;;;;5078729;28;20188;-62
2021/05/07 17:58:37;;;;;;;0.00;0.00;;;;;;;;;;5078742;28;20237;-62
2021/05/07 18:01:03;;;;;;;0.73;0.60;;;;;;;;;;5076508;28;20166;-62
2021/05/07 18:03:30;;;;;;;0.40;0.17;;;;;;;;;;5080760;28;20182;-62
2021/05/07 18:05:56;;;;;;;3.90;0.90;;;;;;;;;;5080431;28;20190;-62
2021/05/07 18:08:23;;;;;;;0.00;0.00;;;;;;;;;;5070614;28;20185;-61
2021/05/07 18:10:50;;;;;;;0.37;0.10;;;;;;;;;;5071430;28;20221;-62
2021/05/07 18:13:16;;;;;;;0.23;0.23;;;;;;;;;;5074903;28;20205;-62
2021/05/07 18:15:43;;;;;;;0.10;0.00;;;;;;;;;;5078403;28;20247;-62
2021/05/07 18:18:11;;;;;;;0.00;0.00;;;;;;;;;;5080738;28;20297;-62
2021/05/07 18:20:38;;;;;;;1.10;1.10;;;;;;;;;;5074326;28;20183;-61
2021/05/07 18:23:04;;;;;;;0.00;0.00;;;;;;;;;;5068145;28;20183;-61
2021/05/07 18:25:31;;;;;;;0.00;0.00;;;;;;;;;;5081315;28;20190;-61
2021/05/07 18:27:57;;;;;;;0.90;0.27;;;;;;;;;;5075812;28;20197;-61
2021/05/07 18:30:25;;;;;;;0.00;0.00;;;;;;;;;;5076566;28;20197;-62
2021/05/07 18:32:52;;;;;;;0.40;0.20;;;;;;;;;;5077865;28;20186;-62
2021/05/07 18:35:20;;;;;;;0.57;0.43;;;;;;;;;;5081241;28;20192;-62
2021/05/07 18:37:47;;;;;;;0.10;0.10;;;;;;;;;;5073645;28;20189;-61
2021/05/07 18:40:13;;;;;;;1.70;0.10;;;;;;;;;;5080693;28;20205;-62
2021/05/07 18:42:40;;;;;;;0.53;0.43;;;;;;;;;;5068266;28;20608;-61
2021/05/07 18:45:09;;;;;;;0.10;0.10;;;;;;;;;;5081033;28;20174;-61
2021/05/07 18:47:36;;;;;;;6.33;4.33;;;;;;;;;;5078409;28;20686;-62
2021/05/07 18:50:04;;;;;;;0.00;0.00;;;;;;;;;;5077294;28;20701;-62
2021/05/07 18:52:31;;;;;;;0.30;0.30;;;;;;;;;;5076457;28;20198;-62
2021/05/07 18:54:59;;;;;;;0.73;0.73;;;;;;;;;;5073391;28;20806;-62
2021/05/07 18:57:26;;;;;;;2.37;0.37;;;;;;;;;;5085528;28;20299;-62
2021/05/07 18:59:53;;;;;;;0.57;0.20;;;;;;;;;;5080727;28;20250;-62
2021/05/07 19:02:19;;;;;;;0.10;0.10;;;;;;;;;;5060852;28;20999;-62
2021/05/07 19:04:46;;;;;;;0.87;0.23;;;;;;;;;;5080437;28;20216;-62
2021/05/07 19:07:13;;;;;;;0.10;0.10;;;;;;;;;;5071699;28;20190;-62
2021/05/07 19:09:40;;;;;;;0.00;0.00;;;;;;;;;;5078609;28;20194;-62
2021/05/07 19:12:06;;;;;;;0.20;0.10;;;;;;;;;;5077080;28;20438;-62
2021/05/07 19:14:33;;;;;;;0.00;0.00;;;;;;;;;;5079915;28;20194;-62
2021/05/07 19:17:01;;;;;;;0.10;0.10;;;;;;;;;;5073117;28;20189;-62
2021/05/07 19:19:28;;;;;;;0.50;0.30;;;;;;;;;;5086867;28;20322;-62
2021/05/07 19:21:55;;;;;;;0.10;0.10;;;;;;;;;;5077801;28;20185;-62
2021/05/07 19:24:21;;;;;;;0.97;0.93;;;;;;;;;;5080066;28;20196;-62
2021/05/07 19:26:48;;;;;;;0.90;0.57;;;;;;;;;;5079779;28;20197;-62
2021/05/07 19:29:15;;;;;;;0.00;0.00;;;;;;;;;;5078621;28;20190;-61
2021/05/07 19:31:41;;;;;;;9.23;5.40;;;;;;;;;;5079575;28;20197;-62
2021/05/07 19:34:08;;;;;;;0.73;0.63;;;;;;;;;;5085116;28;20905;-61
2021/05/07 19:36:35;;;;;;;0.10;0.10;;;;;;;;;;5074340;28;20201;-62
2021/05/07 19:39:01;;;;;;;2.20;0.40;;;;;;;;;;5077580;28;20296;-62
2021/05/07 19:41:28;;;;;;;0.17;0.17;;;;;;;;;;5073437;28;20282;-61
2021/05/07 19:43:55;;;;;;;0.93;0.33;;;;;;;;;;5080428;28;20185;-62
2021/05/07 19:46:21;;;;;;;2.43;0.53;;;;;;;;;;5079256;28;20600;-62
2021/05/07 19:48:48;;;;;;;1.90;0.27;;;;;;;;;;5079022;28;20263;-62
2021/05/07 19:51:15;;;;;;;1.70;0.43;;;;;;;;;;5079211;28;20186;-61
2021/05/07 19:53:42;;;;;;;0.00;0.00;;;;;;;;;;5078528;28;20198;-62
2021/05/07 19:56:08;;;;;;;6.13;0.77;;;;;;;;;;5072192;28;21021;-61
2021/05/07 19:58:35;;;;;;;0.00;0.00;;;;;;;;;;5069299;28;20226;-61
2021/05/07 20:01:01;;;;;;;0.43;0.17;;;;;;;;;;5080256;28;20189;-61
2021/05/07 20:03:28;;;;;;;0.40;0.20;;;;;;;;;;5079747;28;20186;-62
2021/05/07 20:05:55;;;;;;;0.10;0.10;;;;;;;;;;5077392;28;20212;-62
2021/05/07 20:08:21;;;;;;;0.00;0.00;;;;;;;;;;5076001;28;20175;-62
2021/05/07 20:10:48;;;;;;;2.03;1.93;;;;;;;;;;5079525;28;20186;-62
2021/05/07 20:13:15;;;;;;;4.70;0.83;;;;;;;;;;5081379;28;20190;-62
2021/05/07 20:15:41;;;;;;;0.10;0.10;;;;;;;;;;5065635;28;20218;-62
2021/05/07 20:18:10;;;;;;;0.00;0.00;;;;;;;;;;5074663;28;20189;-61
2021/05/07 20:20:37;;;;;;;0.00;0.00;;;;;;;;;;5074198;28;20431;-61
2021/05/07 20:23:04;;;;;;;0.70;0.07;;;;;;;;;;5077158;28;20189;-61
2021/05/07 20:25:33;;;;;;;0.10;0.10;;;;;;;;;;5074067;28;20278;-61
2021/05/07 20:28:00;;;;;;;0.00;0.00;;;;;;;;;;5077041;28;20944;-61
2021/05/07 20:30:27;;;;;;;0.07;0.07;;;;;;;;;;5078477;28;20289;-62
2021/05/07 20:32:54;;;;;;;2.33;1.03;;;;;;;;;;5080190;28;20182;-61
2021/05/07 20:35:23;;;;;;;0.83;0.67;;;;;;;;;;5072227;28;20186;-61
2021/05/07 20:37:51;;;;;;;0.93;0.50;;;;;;;;;;5079013;28;21037;-61
2021/05/07 20:40:19;;;;;;;0.03;0.03;;;;;;;;;;5078482;28;20208;-62
2021/05/07 20:42:46;;;;;;;0.20;0.20;;;;;;;;;;5079152;28;20202;-62
2021/05/07 20:45:13;;;;;;;0.00;0.00;;;;;;;;;;5079293;28;20194;-62
2021/05/07 20:47:39;;;;;;;0.00;0.00;;;;;;;;;;5079103;28;20186;-62
2021/05/07 20:50:07;;;;;;;0.33;0.33;;;;;;;;;;5081627;28;20204;-62
2021/05/07 20:52:33;;;;;;;0.10;0.10;;;;;;;;;;5078091;28;20207;-62
2021/05/07 20:55:01;;;;;;;0.00;0.00;;;;;;;;;;5077965;28;20193;-62
2021/05/07 20:57:27;;;;;;;0.00;0.00;;;;;;;;;;5075114;28;20223;-62
2021/05/07 20:59:54;;;;;;;0.00;0.00;;;;;;;;;;5074356;28;20242;-62
2021/05/07 21:02:20;;;;;;;5.83;0.53;;;;;;;;;;5077890;28;20921;-62
2021/05/07 21:04:49;;;;;;;0.10;0.10;;;;;;;;;;5078098;28;20296;-62
2021/05/07 21:07:17;;;;;;;1.17;0.90;;;;;;;;;;5078858;28;20637;-63
2021/05/07 21:09:46;;;;;;;0.00;0.00;;;;;;;;;;5078741;28;20193;-62
2021/05/07 21:12:13;;;;;;;0.67;0.60;;;;;;;;;;5078882;28;20187;-62
2021/05/07 21:14:41;;;;;;;0.20;0.20;;;;;;;;;;5072208;28;20199;-62
2021/05/07 21:17:08;;;;;;;0.00;0.00;;;;;;;;;;5078888;28;20901;-62
2021/05/07 21:19:35;;;;;;;0.00;0.00;;;;;;;;;;5078825;28;21100;-61
2021/05/07 21:22:03;;;;;;;0.00;0.00;;;;;;;;;;5060699;28;20812;-62
2021/05/07 21:24:29;;;;;;;3.60;0.50;;;;;;;;;;5064558;28;20194;-62
2021/05/07 21:26:56;;;;;;;0.00;0.00;;;;;;;;;;5080399;28;20188;-61
2021/05/07 21:29:22;;;;;;;0.00;0.00;;;;;;;;;;5078315;28;20361;-62
2021/05/07 21:31:49;;;;;;;0.83;0.83;;;;;;;;;;5075519;28;20190;-62
2021/05/07 21:34:20;;;;;;;0.07;0.00;;;;;;;;;;5076133;28;20190;-62
2021/05/07 21:36:47;;;;;;;0.00;0.00;;;;;;;;;;5075665;28;20223;-62
2021/05/07 21:39:13;;;;;;;0.00;0.00;;;;;;;;;;5072467;28;20214;-61
2021/05/07 21:41:40;;;;;;;0.83;0.60;;;;;;;;;;5078250;28;20668;-62
2021/05/07 21:44:06;;;;;;;0.00;0.00;;;;;;;;;;5078686;28;20738;-62
2021/05/07 21:46:35;;;;;;;4.70;0.87;;;;;;;;;;5075555;28;20638;-62
2021/05/07 21:49:02;;;;;;;0.30;0.30;;;;;;;;;;5074791;28;20214;-64
2021/05/07 21:51:31;;;;;;;7.73;6.80;;;;;;;;;;5079567;28;20205;-64
2021/05/07 21:53:58;;;;;;;1.60;1.10;;;;;;;;;;5082245;28;20565;-64
2021/05/07 21:56:25;;;;;;;15.17;4.13;;;;;;;;;;5078196;28;20251;-64
2021/05/07 21:58:51;;;;;;;1.13;0.57;;;;;;;;;;5075945;28;20698;-63
2021/05/07 22:01:18;;;;;;;3.17;2.23;;;;;;;;;;5078384;28;20179;-65
2021/05/07 22:03:47;;;;;;;0.00;0.00;;;;;;;;;;5073092;28;20182;-64
2021/05/07 22:06:13;;;;;;;4.60;2.70;;;;;;;;;;5075990;28;20182;-65
2021/05/07 22:08:40;;;;;;;8.27;7.50;;;;;;;;;;5083785;28;20213;-64
2021/05/07 22:11:07;;;;;;;0.27;0.27;;;;;;;;;;5072315;28;20289;-64
2021/05/07 22:13:33;;;;;;;6.63;3.90;;;;;;;;;;5087110;28;20245;-64
2021/05/07 22:16:00;;;;;;;0.30;0.30;;;;;;;;;;5080893;28;20187;-64
2021/05/07 22:18:27;;;;;;;4.27;3.80;;;;;;;;;;5072523;28;20293;-64
2021/05/07 22:20:54;;;;;;;0.00;0.00;;;;;;;;;;5071226;28;20194;-64
2021/05/07 22:23:21;;;;;;;1.93;1.43;;;;;;;;;;5074982;28;20186;-64
2021/05/07 22:25:48;;;;;;;0.43;0.20;;;;;;;;;;5083895;28;20343;-64
2021/05/07 22:28:15;;;;;;;0.00;0.00;;;;;;;;;;5080572;28;20308;-65
2021/05/07 22:30:41;;;;;;;8.77;5.67;;;;;;;;;;5077854;28;20708;-64
2021/05/07 22:33:08;;;;;;;0.43;0.43;;;;;;;;;;5082297;28;20190;-64
2021/05/07 22:35:35;;;;;;;2.33;2.13;;;;;;;;;;5074944;28;20306;-64
2021/05/07 22:38:01;;;;;;;24.73;5.67;;;;;;;;;;5073179;28;20190;-64
2021/05/07 22:40:28;;;;;;;5.70;0.57;;;;;;;;;;5075968;28;20210;-64
2021/05/07 22:42:56;;;;;;;14.00;12.60;;;;;;;;;;5072821;28;20279;-62
2021/05/07 22:45:23;;;;;;;24.63;18.20;;;;;;;;;;5076716;28;20182;-62
2021/05/07 22:47:50;;;;;;;6.43;4.60;;;;;;;;;;5074722;28;20182;-63
2021/05/07 22:50:16;;;;;;;1.37;1.13;;;;;;;;;;5076617;28;20194;-62
2021/05/07 22:52:43;;;;;;;0.30;0.30;;;;;;;;;;5075164;28;20884;-62
2021/05/07 22:55:10;;;;;;;1.67;1.27;;;;;;;;;;5075721;28;20256;-64
2021/05/07 22:57:37;;;;;;;2.30;2.10;;;;;;;;;;5077537;28;20190;-64
2021/05/07 23:00:10;;;;;;;0.20;0.20;;;;;;;;;;5076275;28;20713;-63
2021/05/07 23:02:37;;;;;;;0.20;0.20;;;;;;;;;;5069116;28;21008;-63
2021/05/07 23:05:05;;;;;;;0.00;0.00;;;;;;;;;;5079488;28;20190;-64
2021/05/07 23:07:31;;;;;;;0.80;0.17;;;;;;;;;;5075388;28;20680;-63
2021/05/07 23:09:58;;;;;;;0.33;0.33;;;;;;;;;;5058250;28;20197;-63
2021/05/07 23:12:29;;;;;;;1.13;1.13;;;;;;;;;;5079181;28;20291;-63
2021/05/07 23:14:56;;;;;;;3.37;0.57;;;;;;;;;;5079914;28;20194;-64
2021/05/07 23:17:23;;;;;;;0.17;0.17;;;;;;;;;;5075896;28;20395;-64
2021/05/07 23:19:49;;;;;;;0.87;0.20;;;;;;;;;;5076465;28;20248;-63
2021/05/07 23:22:16;;;;;;;0.67;0.67;;;;;;;;;;5078689;28;20192;-63
2021/05/07 23:24:43;;;;;;;1.60;0.73;;;;;;;;;;5073534;28;20183;-63
2021/05/07 23:27:10;;;;;;;0.00;0.00;;;;;;;;;;5080758;28;20268;-64
2021/05/07 23:29:36;;;;;;;0.30;0.30;;;;;;;;;;5079381;28;20194;-63
2021/05/07 23:32:03;;;;;;;4.93;0.90;;;;;;;;;;5076844;28;20194;-61
2021/05/07 23:34:29;;;;;;;2.23;0.30;;;;;;;;;;5075910;28;20710;-62
2021/05/07 23:36:56;;;;;;;0.00;0.00;;;;;;;;;;5077010;28;20186;-62
2021/05/07 23:39:23;;;;;;;0.17;0.17;;;;;;;;;;5078029;28;20214;-62
2021/05/07 23:41:50;;;;;;;1.23;1.23;;;;;;;;;;5070884;28;20636;-63
2021/05/07 23:44:17;;;;;;;0.00;0.00;;;;;;;;;;5075820;28;20194;-62
2021/05/07 23:46:44;;;;;;;0.00;0.00;;;;;;;;;;5077035;28;20251;-61
2021/05/07 23:49:11;;;;;;;0.20;0.20;;;;;;;;;;5082540;28;20306;-61
2021/05/07 23:51:37;;;;;;;0.03;0.03;;;;;;;;;;5075658;28;20594;-61